KHMT/HMT METAR and TAF weather

Enter ICAO airport designator
Station Type Date Time Source
KHMT METAR 2021/09/28 05:15 UTC NOAA

KHMT 280515Z AUTO 23008KT 10SM OVC012 16/15 A3002 RMK AO2 T01600153


Station Type Date Time Source
KHMT Decoded METAR 2021/09/28 05:15 UTC NOAA

Station name not available
Sep 28, 2021 - 01:15 AM EDT / 2021.09.28 0515 UTC
Wind: from the SW (230 degrees) at 9 MPH (8 KT):0
Visibility: 10 mile(s):0
Sky conditions: overcast
Temperature: 60.8 F (16.0 C)
Dew Point: 59.5 F (15.3 C)
Relative Humidity: 95%
Pressure (altimeter): 30.02 in. Hg (1016 hPa)
ob: KHMT 280515Z AUTO 23008KT 10SM OVC012 16/15 A3002 RMK AO2 T01600153
cycle: 5

Station Type Date Time Source
KHMT TAF UTC NOAA

Error!

Example: see airport list